This is the latest recevied weather packets stored in our database for station/object NK2J. If no packets are shown the sender has not sent any weather packets the latest 10 day(s).
| Time | Temp. | Humidity | Pressure | Rain* | Wind** | Luminosity | Snow |
|---|---|---|---|---|---|---|---|
| 1777999104 | 20° C | 60% | 1013.6 hPa | 0 mm | - | 301 W/m² | - |
| 1777998803 | 20° C | 58% | 1013.6 hPa | 0 mm | - | 165 W/m² | - |
| 1777998500 | 20° C | 58% | 1013.8 hPa | 0 mm | - | 134 W/m² | - |
| 1777998196 | 20° C | 58% | 1013.8 hPa | 0 mm | - | 126 W/m² | - |
| 1777997894 | 21.11° C | 55% | 1013.6 hPa | 0 mm | - | 352 W/m² | - |
| 1777997590 | 20.56° C | 58% | 1013.7 hPa | 0 mm | - | 633 W/m² | - |
| 1777997288 | 20° C | 62% | 1013.8 hPa | 0 mm | - | 640 W/m² | - |
| 1777996986 | 20° C | 64% | 1014 hPa | 0 mm | - | 412 W/m² | - |
| 1777996682 | 19.44° C | 66% | 1013.9 hPa | 0 mm | - | 351 W/m² | - |
| 1777996377 | 19.44° C | 65% | 1014 hPa | 0 mm | - | 180 W/m² | - |
| 1777996074 | 19.44° C | 65% | 1014 hPa | 0 mm | - | 169 W/m² | - |
| 1777995771 | 20° C | 65% | 1013.7 hPa | 0 mm | - | 332 W/m² | - |
| 1777995467 | 19.44° C | 69% | 1013.7 hPa | 0 mm | - | 263 W/m² | - |
| 1777995164 | 19.44° C | 68% | 1013.6 hPa | 0 mm | - | 495 W/m² | - |
| 1777994861 | 19.44° C | 69% | 1013.6 hPa | 0 mm | - | 489 W/m² | - |
| 1777994558 | 18.89° C | 71% | 1013.8 hPa | 0 mm | - | 385 W/m² | - |
| 1777994252 | 18.89° C | 71% | 1013.7 hPa | 0 mm | - | 168 W/m² | - |
| 1777993950 | 18.89° C | 71% | 1013.7 hPa | 0 mm | - | 141 W/m² | - |
| 1777993647 | 18.89° C | 72% | 1013.7 hPa | 0 mm | - | 195 W/m² | - |
| 1777993345 | 18.89° C | 70% | 1013.6 hPa | 0 mm | - | 372 W/m² | - |
| 1777993044 | 18.33° C | 75% | 1013.7 hPa | 0 mm | - | 197 W/m² | - |
| 1777992742 | 18.33° C | 77% | 1013.7 hPa | 0 mm | - | 185 W/m² | - |
| 1777992440 | 18.33° C | 78% | 1013.7 hPa | 0 mm | - | 165 W/m² | - |
| 1777992138 | 17.78° C | 79% | 1013.6 hPa | 0 mm | - | 137 W/m² | - |
| 1777991835 | 17.78° C | 80% | 1013.8 hPa | 0 mm | - | 124 W/m² | - |
* Rain latest hour (hover to see other rain measurements)
** Current wind speed in m/s (hover to see current wind gust speed)